sensor_id;sensor_type;location;lat;lon;timestamp;temperature;humidity
68378;DHT22;55322;48.146;11.516;2023-05-10T00:00:36;13.27;95.74
68378;DHT22;55322;48.146;11.516;2023-05-10T00:03:02;13.24;95.50
68378;DHT22;55322;48.146;11.516;2023-05-10T00:05:30;13.28;95.51
68378;DHT22;55322;48.146;11.516;2023-05-10T00:07:55;13.30;95.09
68378;DHT22;55322;48.146;11.516;2023-05-10T00:10:21;13.27;95.21
68378;DHT22;55322;48.146;11.516;2023-05-10T00:12:46;13.27;94.90
68378;DHT22;55322;48.146;11.516;2023-05-10T00:15:11;13.21;95.04
68378;DHT22;55322;48.146;11.516;2023-05-10T00:17:36;13.21;94.91
68378;DHT22;55322;48.146;11.516;2023-05-10T00:20:02;13.23;94.98
68378;DHT22;55322;48.146;11.516;2023-05-10T00:22:30;13.23;95.26
68378;DHT22;55322;48.146;11.516;2023-05-10T00:24:55;13.17;95.40
68378;DHT22;55322;48.146;11.516;2023-05-10T00:27:20;13.14;95.59
68378;DHT22;55322;48.146;11.516;2023-05-10T00:29:46;13.20;95.63
68378;DHT22;55322;48.146;11.516;2023-05-10T00:32:11;13.17;95.50
68378;DHT22;55322;48.146;11.516;2023-05-10T00:34:36;13.11;95.66
68378;DHT22;55322;48.146;11.516;2023-05-10T00:37:01;13.13;95.43
68378;DHT22;55322;48.146;11.516;2023-05-10T00:39:27;13.11;95.46
68378;DHT22;55322;48.146;11.516;2023-05-10T00:41:53;13.11;95.49
68378;DHT22;55322;48.146;11.516;2023-05-10T00:44:19;13.11;95.56
68378;DHT22;55322;48.146;11.516;2023-05-10T00:46:44;13.11;95.20
68378;DHT22;55322;48.146;11.516;2023-05-10T00:49:10;13.07;95.46
68378;DHT22;55322;48.146;11.516;2023-05-10T00:51:36;13.00;95.59
68378;DHT22;55322;48.146;11.516;2023-05-10T00:54:02;13.07;95.31
68378;DHT22;55322;48.146;11.516;2023-05-10T00:56:28;13.04;95.40
68378;DHT22;55322;48.146;11.516;2023-05-10T00:58:55;13.07;95.46
68378;DHT22;55322;48.146;11.516;2023-05-10T01:01:20;13.00;95.90
68378;DHT22;55322;48.146;11.516;2023-05-10T01:03:46;13.07;95.71
68378;DHT22;55322;48.146;11.516;2023-05-10T01:06:12;13.06;94.99
68378;DHT22;55322;48.146;11.516;2023-05-10T01:08:38;13.03;95.39
68378;DHT22;55322;48.146;11.516;2023-05-10T01:11:03;13.10;95.43
68378;DHT22;55322;48.146;11.516;2023-05-10T01:13:34;13.07;95.03
68378;DHT22;55322;48.146;11.516;2023-05-10T01:16:01;13.06;94.59
68378;DHT22;55322;48.146;11.516;2023-05-10T01:18:30;12.96;95.49
68378;DHT22;55322;48.146;11.516;2023-05-10T01:21:07;12.99;95.35
68378;DHT22;55322;48.146;11.516;2023-05-10T01:27:02;12.94;95.05
68378;DHT22;55322;48.146;11.516;2023-05-10T01:29:44;12.89;95.53
68378;DHT22;55322;48.146;11.516;2023-05-10T01:32:28;12.93;95.19
68378;DHT22;55322;48.146;11.516;2023-05-10T01:38:32;12.83;95.84
68378;DHT22;55322;48.146;11.516;2023-05-10T01:43:54;12.82;95.68
68378;DHT22;55322;48.146;11.516;2023-05-10T01:46:33;12.82;95.72
68378;DHT22;55322;48.146;11.516;2023-05-10T01:49:00;12.83;95.66
68378;DHT22;55322;48.146;11.516;2023-05-10T01:51:31;12.89;95.35
68378;DHT22;55322;48.146;11.516;2023-05-10T01:54:02;12.83;95.45
68378;DHT22;55322;48.146;11.516;2023-05-10T01:56:30;12.84;95.79
68378;DHT22;55322;48.146;11.516;2023-05-10T01:58:58;12.82;95.74
68378;DHT22;55322;48.146;11.516;2023-05-10T02:01:26;12.84;95.72
68378;DHT22;55322;48.146;11.516;2023-05-10T02:03:53;12.82;95.82
68378;DHT22;55322;48.146;11.516;2023-05-10T02:06:20;12.73;95.86
68378;DHT22;55322;48.146;11.516;2023-05-10T02:08:47;12.76;95.91
68378;DHT22;55322;48.146;11.516;2023-05-10T02:11:14;12.83;95.79
68378;DHT22;55322;48.146;11.516;2023-05-10T02:13:40;12.80;96.24
68378;DHT22;55322;48.146;11.516;2023-05-10T02:16:07;12.83;95.79
68378;DHT22;55322;48.146;11.516;2023-05-10T02:18:34;12.83;95.84
68378;DHT22;55322;48.146;11.516;2023-05-10T02:21:01;12.80;95.87
68378;DHT22;55322;48.146;11.516;2023-05-10T02:23:28;12.84;95.25
68378;DHT22;55322;48.146;11.516;2023-05-10T02:25:54;12.80;95.47
68378;DHT22;55322;48.146;11.516;2023-05-10T02:28:22;12.82;95.29
68378;DHT22;55322;48.146;11.516;2023-05-10T02:30:48;12.83;95.45
68378;DHT22;55322;48.146;11.516;2023-05-10T02:33:14;12.77;95.82
68378;DHT22;55322;48.146;11.516;2023-05-10T02:35:40;12.70;96.00
68378;DHT22;55322;48.146;11.516;2023-05-10T02:38:06;12.80;95.41
68378;DHT22;55322;48.146;11.516;2023-05-10T02:40:33;12.70;95.71
68378;DHT22;55322;48.146;11.516;2023-05-10T02:42:59;12.72;95.84
68378;DHT22;55322;48.146;11.516;2023-05-10T02:45:29;12.70;95.57
68378;DHT22;55322;48.146;11.516;2023-05-10T02:47:55;12.67;95.98
68378;DHT22;55322;48.146;11.516;2023-05-10T02:50:22;12.66;95.98
68378;DHT22;55322;48.146;11.516;2023-05-10T02:52:50;12.59;96.15
68378;DHT22;55322;48.146;11.516;2023-05-10T02:55:19;12.64;95.68
68378;DHT22;55322;48.146;11.516;2023-05-10T02:57:52;12.60;95.84
68378;DHT22;55322;48.146;11.516;2023-05-10T03:00:17;12.66;95.64
68378;DHT22;55322;48.146;11.516;2023-05-10T03:02:43;12.72;95.62
68378;DHT22;55322;48.146;11.516;2023-05-10T03:05:08;12.69;95.43
68378;DHT22;55322;48.146;11.516;2023-05-10T03:07:34;12.67;95.96
68378;DHT22;55322;48.146;11.516;2023-05-10T03:09:59;12.62;96.22
68378;DHT22;55322;48.146;11.516;2023-05-10T03:13:12;12.62;96.10
68378;DHT22;55322;48.146;11.516;2023-05-10T03:18:12;12.60;96.17
68378;DHT22;55322;48.146;11.516;2023-05-10T03:20:47;12.62;96.22
68378;DHT22;55322;48.146;11.516;2023-05-10T03:23:21;12.60;96.35
68378;DHT22;55322;48.146;11.516;2023-05-10T03:25:48;12.63;96.09
68378;DHT22;55322;48.146;11.516;2023-05-10T03:28:16;12.64;96.01
68378;DHT22;55322;48.146;11.516;2023-05-10T03:30:43;12.62;95.99
68378;DHT22;55322;48.146;11.516;2023-05-10T03:33:10;12.63;95.72
68378;DHT22;55322;48.146;11.516;2023-05-10T03:35:36;12.62;96.17
68378;DHT22;55322;48.146;11.516;2023-05-10T03:38:01;12.57;96.26
68378;DHT22;55322;48.146;11.516;2023-05-10T03:40:27;12.55;96.38
68378;DHT22;55322;48.146;11.516;2023-05-10T03:42:54;12.53;96.62
68378;DHT22;55322;48.146;11.516;2023-05-10T03:45:20;12.53;96.53
68378;DHT22;55322;48.146;11.516;2023-05-10T03:47:45;12.57;96.38
68378;DHT22;55322;48.146;11.516;2023-05-10T03:50:10;12.56;96.53
68378;DHT22;55322;48.146;11.516;2023-05-10T03:52:36;12.56;96.45
68378;DHT22;55322;48.146;11.516;2023-05-10T03:55:01;12.59;96.21
68378;DHT22;55322;48.146;11.516;2023-05-10T03:57:28;12.55;96.30
68378;DHT22;55322;48.146;11.516;2023-05-10T03:59:54;12.56;96.35
68378;DHT22;55322;48.146;11.516;2023-05-10T04:02:19;12.56;96.60
68378;DHT22;55322;48.146;11.516;2023-05-10T04:04:44;12.60;96.53
68378;DHT22;55322;48.146;11.516;2023-05-10T04:07:10;12.63;96.55
68378;DHT22;55322;48.146;11.516;2023-05-10T04:09:35;12.63;96.58
68378;DHT22;55322;48.146;11.516;2023-05-10T04:12:00;12.62;96.37
68378;DHT22;55322;48.146;11.516;2023-05-10T04:14:27;12.63;96.19
68378;DHT22;55322;48.146;11.516;2023-05-10T04:16:52;12.63;96.46
68378;DHT22;55322;48.146;11.516;2023-05-10T04:19:18;12.67;96.34
68378;DHT22;55322;48.146;11.516;2023-05-10T04:21:43;12.67;96.40
68378;DHT22;55322;48.146;11.516;2023-05-10T04:24:08;12.66;96.65
68378;DHT22;55322;48.146;11.516;2023-05-10T04:26:34;12.63;96.38
68378;DHT22;55322;48.146;11.516;2023-05-10T04:28:59;12.66;96.37
68378;DHT22;55322;48.146;11.516;2023-05-10T04:31:24;12.66;96.33
68378;DHT22;55322;48.146;11.516;2023-05-10T04:33:51;12.66;96.48
68378;DHT22;55322;48.146;11.516;2023-05-10T04:36:16;12.70;96.11
68378;DHT22;55322;48.146;11.516;2023-05-10T04:38:41;12.66;96.39
68378;DHT22;55322;48.146;11.516;2023-05-10T04:41:08;12.72;96.12
68378;DHT22;55322;48.146;11.516;2023-05-10T04:43:34;12.72;95.90
68378;DHT22;55322;48.146;11.516;2023-05-10T04:46:00;12.69;95.82
68378;DHT22;55322;48.146;11.516;2023-05-10T04:48:25;12.75;95.79
68378;DHT22;55322;48.146;11.516;2023-05-10T04:50:51;12.64;95.59
68378;DHT22;55322;48.146;11.516;2023-05-10T04:53:16;12.64;95.39
68378;DHT22;55322;48.146;11.516;2023-05-10T04:55:42;12.55;95.26
68378;DHT22;55322;48.146;11.516;2023-05-10T04:58:07;12.55;95.83
68378;DHT22;55322;48.146;11.516;2023-05-10T05:00:33;12.53;95.51
68378;DHT22;55322;48.146;11.516;2023-05-10T05:02:58;12.57;95.33
68378;DHT22;55322;48.146;11.516;2023-05-10T05:05:24;12.48;95.67
68378;DHT22;55322;48.146;11.516;2023-05-10T05:07:49;12.48;95.49
68378;DHT22;55322;48.146;11.516;2023-05-10T05:10:14;12.45;95.65
68378;DHT22;55322;48.146;11.516;2023-05-10T05:12:40;12.43;95.73
68378;DHT22;55322;48.146;11.516;2023-05-10T05:15:05;12.40;95.97
68378;DHT22;55322;48.146;11.516;2023-05-10T05:17:31;12.38;95.89
68378;DHT22;55322;48.146;11.516;2023-05-10T05:19:56;12.32;96.16
68378;DHT22;55322;48.146;11.516;2023-05-10T05:22:22;12.29;96.36
68378;DHT22;55322;48.146;11.516;2023-05-10T05:24:53;12.26;96.22
68378;DHT22;55322;48.146;11.516;2023-05-10T05:27:19;12.26;96.32
68378;DHT22;55322;48.146;11.516;2023-05-10T05:29:47;12.18;96.24
68378;DHT22;55322;48.146;11.516;2023-05-10T05:32:12;12.15;96.53
68378;DHT22;55322;48.146;11.516;2023-05-10T05:34:38;12.15;96.59
68378;DHT22;55322;48.146;11.516;2023-05-10T05:37:03;12.21;96.24
68378;DHT22;55322;48.146;11.516;2023-05-10T05:39:28;12.06;96.60
68378;DHT22;55322;48.146;11.516;2023-05-10T05:41:54;12.02;96.70
68378;DHT22;55322;48.146;11.516;2023-05-10T05:44:19;12.09;97.01
68378;DHT22;55322;48.146;11.516;2023-05-10T05:46:45;12.04;96.83
68378;DHT22;55322;48.146;11.516;2023-05-10T05:49:10;12.02;96.02
68378;DHT22;55322;48.146;11.516;2023-05-10T05:51:35;12.02;96.45
68378;DHT22;55322;48.146;11.516;2023-05-10T05:54:01;12.11;96.65
68378;DHT22;55322;48.146;11.516;2023-05-10T05:56:26;12.14;96.78
68378;DHT22;55322;48.146;11.516;2023-05-10T05:58:52;12.11;96.58
68378;DHT22;55322;48.146;11.516;2023-05-10T06:01:17;12.08;96.97
68378;DHT22;55322;48.146;11.516;2023-05-10T06:03:43;12.12;96.37
68378;DHT22;55322;48.146;11.516;2023-05-10T06:06:08;12.12;96.34
68378;DHT22;55322;48.146;11.516;2023-05-10T06:08:33;12.21;96.64
68378;DHT22;55322;48.146;11.516;2023-05-10T06:11:00;12.19;96.85
68378;DHT22;55322;48.146;11.516;2023-05-10T06:13:25;12.29;96.76
68378;DHT22;55322;48.146;11.516;2023-05-10T06:15:53;12.33;96.61
68378;DHT22;55322;48.146;11.516;2023-05-10T06:18:19;12.36;96.50
68378;DHT22;55322;48.146;11.516;2023-05-10T06:20:44;12.36;96.18
68378;DHT22;55322;48.146;11.516;2023-05-10T06:23:09;12.49;96.42
68378;DHT22;55322;48.146;11.516;2023-05-10T06:25:35;12.57;96.55
68378;DHT22;55322;48.146;11.516;2023-05-10T06:28:00;12.67;96.50
68378;DHT22;55322;48.146;11.516;2023-05-10T06:30:26;12.63;96.07
68378;DHT22;55322;48.146;11.516;2023-05-10T06:32:54;12.72;96.34
68378;DHT22;55322;48.146;11.516;2023-05-10T06:35:19;12.69;95.53
68378;DHT22;55322;48.146;11.516;2023-05-10T06:37:44;12.64;95.79
68378;DHT22;55322;48.146;11.516;2023-05-10T06:40:10;12.56;95.96
68378;DHT22;55322;48.146;11.516;2023-05-10T06:42:35;12.60;96.14
68378;DHT22;55322;48.146;11.516;2023-05-10T06:45:01;12.55;95.74
68378;DHT22;55322;48.146;11.516;2023-05-10T06:47:26;12.56;96.14
68378;DHT22;55322;48.146;11.516;2023-05-10T06:49:51;12.59;96.24
68378;DHT22;55322;48.146;11.516;2023-05-10T06:52:17;12.64;96.18
68378;DHT22;55322;48.146;11.516;2023-05-10T06:54:42;12.72;96.14
68378;DHT22;55322;48.146;11.516;2023-05-10T06:57:07;12.69;95.86
68378;DHT22;55322;48.146;11.516;2023-05-10T06:59:33;12.80;95.89
68378;DHT22;55322;48.146;11.516;2023-05-10T07:01:58;13.04;95.16
68378;DHT22;55322;48.146;11.516;2023-05-10T07:04:23;13.20;95.43
68378;DHT22;55322;48.146;11.516;2023-05-10T07:06:49;13.14;94.82
68378;DHT22;55322;48.146;11.516;2023-05-10T07:09:14;13.13;94.05
68378;DHT22;55322;48.146;11.516;2023-05-10T07:11:40;13.21;95.09
68378;DHT22;55322;48.146;11.516;2023-05-10T07:14:06;13.38;92.89
68378;DHT22;55322;48.146;11.516;2023-05-10T07:16:31;13.61;93.46
68378;DHT22;55322;48.146;11.516;2023-05-10T07:18:56;13.86;93.12
68378;DHT22;55322;48.146;11.516;2023-05-10T07:21:22;13.99;92.04
68378;DHT22;55322;48.146;11.516;2023-05-10T07:23:49;14.04;91.81
68378;DHT22;55322;48.146;11.516;2023-05-10T07:26:14;14.25;91.89
68378;DHT22;55322;48.146;11.516;2023-05-10T07:28:40;14.50;91.15
68378;DHT22;55322;48.146;11.516;2023-05-10T07:31:05;14.55;90.32
68378;DHT22;55322;48.146;11.516;2023-05-10T07:33:31;14.44;88.91
68378;DHT22;55322;48.146;11.516;2023-05-10T07:35:56;14.59;90.01
68378;DHT22;55322;48.146;11.516;2023-05-10T07:38:22;14.97;88.90
68378;DHT22;55322;48.146;11.516;2023-05-10T07:40:47;14.79;86.86
68378;DHT22;55322;48.146;11.516;2023-05-10T07:43:12;15.08;86.88
68378;DHT22;55322;48.146;11.516;2023-05-10T07:45:38;15.38;86.62
68378;DHT22;55322;48.146;11.516;2023-05-10T07:48:03;15.34;84.45
68378;DHT22;55322;48.146;11.516;2023-05-10T07:50:28;15.73;85.92
68378;DHT22;55322;48.146;11.516;2023-05-10T07:52:54;16.03;82.34
68378;DHT22;55322;48.146;11.516;2023-05-10T07:55:19;16.14;83.49
68378;DHT22;55322;48.146;11.516;2023-05-10T07:57:46;16.26;82.23
68378;DHT22;55322;48.146;11.516;2023-05-10T08:00:17;16.23;81.97
68378;DHT22;55322;48.146;11.516;2023-05-10T08:02:43;16.26;81.11
68378;DHT22;55322;48.146;11.516;2023-05-10T08:05:08;15.95;82.56
68378;DHT22;55322;48.146;11.516;2023-05-10T08:07:34;16.06;83.81
68378;DHT22;55322;48.146;11.516;2023-05-10T08:10:00;15.62;80.99
68378;DHT22;55322;48.146;11.516;2023-05-10T08:12:25;15.25;83.80
68378;DHT22;55322;48.146;11.516;2023-05-10T08:14:50;15.31;84.20
68378;DHT22;55322;48.146;11.516;2023-05-10T08:17:16;15.35;84.51
68378;DHT22;55322;48.146;11.516;2023-05-10T08:19:41;15.42;84.27
68378;DHT22;55322;48.146;11.516;2023-05-10T08:22:06;15.32;84.66
68378;DHT22;55322;48.146;11.516;2023-05-10T08:24:32;14.73;84.44
68378;DHT22;55322;48.146;11.516;2023-05-10T08:26:57;14.56;84.96
68378;DHT22;55322;48.146;11.516;2023-05-10T08:29:22;14.25;86.56
68378;DHT22;55322;48.146;11.516;2023-05-10T08:31:48;13.86;88.18
68378;DHT22;55322;48.146;11.516;2023-05-10T08:34:13;13.81;88.64
68378;DHT22;55322;48.146;11.516;2023-05-10T08:36:38;13.86;89.36
68378;DHT22;55322;48.146;11.516;2023-05-10T08:39:04;13.65;89.55
68378;DHT22;55322;48.146;11.516;2023-05-10T08:41:29;13.57;90.56
68378;DHT22;55322;48.146;11.516;2023-05-10T08:43:56;13.75;91.35
68378;DHT22;55322;48.146;11.516;2023-05-10T08:46:22;13.86;91.12
68378;DHT22;55322;48.146;11.516;2023-05-10T08:48:49;14.02;90.44
68378;DHT22;55322;48.146;11.516;2023-05-10T08:51:21;13.82;90.06
68378;DHT22;55322;48.146;11.516;2023-05-10T08:53:47;13.81;90.66
68378;DHT22;55322;48.146;11.516;2023-05-10T08:56:13;13.75;90.39
68378;DHT22;55322;48.146;11.516;2023-05-10T08:58:40;13.68;89.98
68378;DHT22;55322;48.146;11.516;2023-05-10T09:01:06;13.57;90.20
68378;DHT22;55322;48.146;11.516;2023-05-10T09:03:32;13.88;90.42
68378;DHT22;55322;48.146;11.516;2023-05-10T09:05:57;14.30;87.54
68378;DHT22;55322;48.146;11.516;2023-05-10T09:08:24;15.27;85.45
68378;DHT22;55322;48.146;11.516;2023-05-10T09:10:53;16.34;83.49
68378;DHT22;55322;48.146;11.516;2023-05-10T09:13:20;17.36;78.45
68378;DHT22;55322;48.146;11.516;2023-05-10T09:15:46;17.45;78.23
68378;DHT22;55322;48.146;11.516;2023-05-10T09:18:12;17.21;79.73
68378;DHT22;55322;48.146;11.516;2023-05-10T09:20:37;16.67;79.36
68378;DHT22;55322;48.146;11.516;2023-05-10T09:23:03;16.46;80.95
68378;DHT22;55322;48.146;11.516;2023-05-10T09:25:28;16.05;77.83
68378;DHT22;55322;48.146;11.516;2023-05-10T09:27:54;15.78;82.83
68378;DHT22;55322;48.146;11.516;2023-05-10T09:30:25;15.70;80.78
68378;DHT22;55322;48.146;11.516;2023-05-10T09:32:51;15.54;82.95
68378;DHT22;55322;48.146;11.516;2023-05-10T09:35:19;15.32;83.10
68378;DHT22;55322;48.146;11.516;2023-05-10T09:37:46;15.25;83.36
68378;DHT22;55322;48.146;11.516;2023-05-10T09:40:20;15.44;80.31
68378;DHT22;55322;48.146;11.516;2023-05-10T09:43:04;15.36;82.45
68378;DHT22;55322;48.146;11.516;2023-05-10T09:45:32;16.12;83.82
68378;DHT22;55322;48.146;11.516;2023-05-10T09:47:58;16.31;80.63
68378;DHT22;55322;48.146;11.516;2023-05-10T09:50:24;16.19;79.00
68378;DHT22;55322;48.146;11.516;2023-05-10T09:53:01;16.23;77.85
68378;DHT22;55322;48.146;11.516;2023-05-10T09:55:44;16.12;77.14
68378;DHT22;55322;48.146;11.516;2023-05-10T09:58:11;15.90;78.93
68378;DHT22;55322;48.146;11.516;2023-05-10T10:00:38;16.13;79.36
68378;DHT22;55322;48.146;11.516;2023-05-10T10:03:04;16.03;78.20
68378;DHT22;55322;48.146;11.516;2023-05-10T10:05:31;16.19;78.08
68378;DHT22;55322;48.146;11.516;2023-05-10T10:07:58;16.36;77.34
68378;DHT22;55322;48.146;11.516;2023-05-10T10:10:27;16.63;78.46
68378;DHT22;55322;48.146;11.516;2023-05-10T10:12:53;17.45;79.56
68378;DHT22;55322;48.146;11.516;2023-05-10T10:15:20;17.66;75.82
68378;DHT22;55322;48.146;11.516;2023-05-10T10:17:46;17.50;74.12
68378;DHT22;55322;48.146;11.516;2023-05-10T10:20:12;17.66;74.42
68378;DHT22;55322;48.146;11.516;2023-05-10T10:22:38;17.50;72.14
68378;DHT22;55322;48.146;11.516;2023-05-10T10:25:04;16.91;74.85
68378;DHT22;55322;48.146;11.516;2023-05-10T10:30:25;17.62;73.03
68378;DHT22;55322;48.146;11.516;2023-05-10T10:35:39;17.58;70.25
68378;DHT22;55322;48.146;11.516;2023-05-10T10:38:07;16.89;70.14
68378;DHT22;55322;48.146;11.516;2023-05-10T10:40:33;16.05;72.78
68378;DHT22;55322;48.146;11.516;2023-05-10T10:43:22;16.02;76.14
68378;DHT22;55322;48.146;11.516;2023-05-10T10:46:16;16.00;76.83
68378;DHT22;55322;48.146;11.516;2023-05-10T10:49:08;15.52;77.84
68378;DHT22;55322;48.146;11.516;2023-05-10T10:51:38;15.21;81.18
68378;DHT22;55322;48.146;11.516;2023-05-10T10:54:10;15.00;84.77
68378;DHT22;55322;48.146;11.516;2023-05-10T10:56:35;15.12;85.86
68378;DHT22;55322;48.146;11.516;2023-05-10T10:59:01;14.80;85.04
68378;DHT22;55322;48.146;11.516;2023-05-10T11:01:33;14.61;86.22
68378;DHT22;55322;48.146;11.516;2023-05-10T11:06:30;14.29;86.49
68378;DHT22;55322;48.146;11.516;2023-05-10T11:09:04;14.57;87.76
68378;DHT22;55322;48.146;11.516;2023-05-10T11:11:31;14.66;87.14
68378;DHT22;55322;48.146;11.516;2023-05-10T11:14:03;14.73;87.41
68378;DHT22;55322;48.146;11.516;2023-05-10T11:16:43;14.77;87.60
68378;DHT22;55322;48.146;11.516;2023-05-10T11:19:16;14.76;87.19
68378;DHT22;55322;48.146;11.516;2023-05-10T11:24:21;14.50;85.76
68378;DHT22;55322;48.146;11.516;2023-05-10T11:26:49;14.39;87.19
68378;DHT22;55322;48.146;11.516;2023-05-10T11:29:15;14.23;87.09
68378;DHT22;55322;48.146;11.516;2023-05-10T11:31:44;14.10;87.65
68378;DHT22;55322;48.146;11.516;2023-05-10T11:34:10;13.95;86.23
68378;DHT22;55322;48.146;11.516;2023-05-10T11:36:36;13.53;89.13
68378;DHT22;55322;48.146;11.516;2023-05-10T11:39:02;13.45;89.58
68378;DHT22;55322;48.146;11.516;2023-05-10T11:41:29;13.41;90.32
68378;DHT22;55322;48.146;11.516;2023-05-10T11:43:55;13.27;90.60
68378;DHT22;55322;48.146;11.516;2023-05-10T11:46:25;13.33;91.08
68378;DHT22;55322;48.146;11.516;2023-05-10T11:48:55;13.21;91.68
68378;DHT22;55322;48.146;11.516;2023-05-10T11:51:24;13.31;91.13
68378;DHT22;55322;48.146;11.516;2023-05-10T11:53:52;13.20;92.10
68378;DHT22;55322;48.146;11.516;2023-05-10T11:56:18;13.02;91.60
68378;DHT22;55322;48.146;11.516;2023-05-10T11:58:43;13.03;92.04
68378;DHT22;55322;48.146;11.516;2023-05-10T12:01:09;13.03;91.65
68378;DHT22;55322;48.146;11.516;2023-05-10T12:03:35;13.02;91.98
68378;DHT22;55322;48.146;11.516;2023-05-10T12:06:02;13.03;91.96
68378;DHT22;55322;48.146;11.516;2023-05-10T12:08:28;12.94;91.75
68378;DHT22;55322;48.146;11.516;2023-05-10T12:11:07;12.87;91.96
68378;DHT22;55322;48.146;11.516;2023-05-10T12:13:38;12.82;92.91
68378;DHT22;55322;48.146;11.516;2023-05-10T12:16:18;12.73;92.42
68378;DHT22;55322;48.146;11.516;2023-05-10T12:18:45;12.75;93.31
68378;DHT22;55322;48.146;11.516;2023-05-10T12:21:11;12.67;92.65
68378;DHT22;55322;48.146;11.516;2023-05-10T12:23:38;12.76;92.85
68378;DHT22;55322;48.146;11.516;2023-05-10T12:26:04;12.73;92.59
68378;DHT22;55322;48.146;11.516;2023-05-10T12:28:30;12.62;92.74
68378;DHT22;55322;48.146;11.516;2023-05-10T12:30:57;12.62;92.86
68378;DHT22;55322;48.146;11.516;2023-05-10T12:33:22;12.56;93.18
68378;DHT22;55322;48.146;11.516;2023-05-10T12:35:53;12.60;93.52
68378;DHT22;55322;48.146;11.516;2023-05-10T12:41:01;12.66;93.39
68378;DHT22;55322;48.146;11.516;2023-05-10T12:43:27;12.73;92.66
68378;DHT22;55322;48.146;11.516;2023-05-10T12:45:52;12.67;92.86
68378;DHT22;55322;48.146;11.516;2023-05-10T12:48:18;12.73;93.19
68378;DHT22;55322;48.146;11.516;2023-05-10T12:50:43;12.77;92.93
68378;DHT22;55322;48.146;11.516;2023-05-10T12:53:09;12.80;93.17
68378;DHT22;55322;48.146;11.516;2023-05-10T12:55:34;12.89;93.33
68378;DHT22;55322;48.146;11.516;2023-05-10T12:58:00;12.90;93.12
68378;DHT22;55322;48.146;11.516;2023-05-10T13:00:25;12.92;92.93
68378;DHT22;55322;48.146;11.516;2023-05-10T13:02:50;13.02;92.95
68378;DHT22;55322;48.146;11.516;2023-05-10T13:05:16;12.93;91.71
68378;DHT22;55322;48.146;11.516;2023-05-10T13:07:41;12.75;92.54
68378;DHT22;55322;48.146;11.516;2023-05-10T13:10:09;12.90;92.93
68378;DHT22;55322;48.146;11.516;2023-05-10T13:12:34;12.99;93.21
68378;DHT22;55322;48.146;11.516;2023-05-10T13:14:59;13.00;93.50
68378;DHT22;55322;48.146;11.516;2023-05-10T13:17:25;13.14;92.94
68378;DHT22;55322;48.146;11.516;2023-05-10T13:19:51;13.18;92.86
68378;DHT22;55322;48.146;11.516;2023-05-10T13:22:16;13.21;92.40
68378;DHT22;55322;48.146;11.516;2023-05-10T13:24:42;13.21;91.62
68378;DHT22;55322;48.146;11.516;2023-05-10T13:27:08;13.15;91.20
68378;DHT22;55322;48.146;11.516;2023-05-10T13:29:33;13.15;92.52
68378;DHT22;55322;48.146;11.516;2023-05-10T13:31:59;13.03;91.77
68378;DHT22;55322;48.146;11.516;2023-05-10T13:34:24;13.04;92.09
68378;DHT22;55322;48.146;11.516;2023-05-10T13:36:50;12.86;92.45
68378;DHT22;55322;48.146;11.516;2023-05-10T13:39:15;12.70;92.01
68378;DHT22;55322;48.146;11.516;2023-05-10T13:41:40;12.69;92.46
68378;DHT22;55322;48.146;11.516;2023-05-10T13:44:06;12.63;92.42
68378;DHT22;55322;48.146;11.516;2023-05-10T13:46:31;12.63;92.05
68378;DHT22;55322;48.146;11.516;2023-05-10T13:48:57;12.64;91.69
68378;DHT22;55322;48.146;11.516;2023-05-10T13:51:22;12.52;91.81
68378;DHT22;55322;48.146;11.516;2023-05-10T13:53:48;12.63;92.32
68378;DHT22;55322;48.146;11.516;2023-05-10T13:56:14;12.63;92.65
68378;DHT22;55322;48.146;11.516;2023-05-10T13:58:39;12.77;91.70
68378;DHT22;55322;48.146;11.516;2023-05-10T14:01:04;12.70;91.02
68378;DHT22;55322;48.146;11.516;2023-05-10T14:03:30;12.77;91.77
68378;DHT22;55322;48.146;11.516;2023-05-10T14:05:56;12.77;91.13
68378;DHT22;55322;48.146;11.516;2023-05-10T14:08:21;12.77;92.46
68378;DHT22;55322;48.146;11.516;2023-05-10T14:10:47;12.76;92.38
68378;DHT22;55322;48.146;11.516;2023-05-10T14:13:13;12.84;91.90
68378;DHT22;55322;48.146;11.516;2023-05-10T14:15:39;12.87;92.35
68378;DHT22;55322;48.146;11.516;2023-05-10T14:18:04;12.92;92.36
68378;DHT22;55322;48.146;11.516;2023-05-10T14:20:29;13.02;92.87
68378;DHT22;55322;48.146;11.516;2023-05-10T14:22:55;13.02;92.14
68378;DHT22;55322;48.146;11.516;2023-05-10T14:25:20;12.99;91.65
68378;DHT22;55322;48.146;11.516;2023-05-10T14:27:46;12.90;91.71
68378;DHT22;55322;48.146;11.516;2023-05-10T14:30:12;12.93;91.94
68378;DHT22;55322;48.146;11.516;2023-05-10T14:32:37;12.93;91.76
68378;DHT22;55322;48.146;11.516;2023-05-10T14:35:03;12.90;92.59
68378;DHT22;55322;48.146;11.516;2023-05-10T14:37:28;12.90;92.18
68378;DHT22;55322;48.146;11.516;2023-05-10T14:39:53;12.89;91.89
68378;DHT22;55322;48.146;11.516;2023-05-10T14:42:19;12.76;92.36
68378;DHT22;55322;48.146;11.516;2023-05-10T14:44:44;12.75;92.69
68378;DHT22;55322;48.146;11.516;2023-05-10T14:47:09;12.56;93.32
68378;DHT22;55322;48.146;11.516;2023-05-10T14:49:35;12.60;92.81
68378;DHT22;55322;48.146;11.516;2023-05-10T14:52:00;12.63;92.65
68378;DHT22;55322;48.146;11.516;2023-05-10T14:54:25;12.63;92.20
68378;DHT22;55322;48.146;11.516;2023-05-10T14:56:51;12.42;92.50
68378;DHT22;55322;48.146;11.516;2023-05-10T14:59:16;12.38;92.13
68378;DHT22;55322;48.146;11.516;2023-05-10T15:01:41;12.38;93.30
68378;DHT22;55322;48.146;11.516;2023-05-10T15:04:08;12.48;93.16
68378;DHT22;55322;48.146;11.516;2023-05-10T15:06:34;12.35;92.84
68378;DHT22;55322;48.146;11.516;2023-05-10T15:09:01;12.35;93.50
68378;DHT22;55322;48.146;11.516;2023-05-10T15:11:28;12.39;92.66
68378;DHT22;55322;48.146;11.516;2023-05-10T15:13:54;12.28;92.49
68378;DHT22;55322;48.146;11.516;2023-05-10T15:16:19;12.25;93.34
68378;DHT22;55322;48.146;11.516;2023-05-10T15:18:44;12.24;94.11
68378;DHT22;55322;48.146;11.516;2023-05-10T15:21:11;12.29;93.88
68378;DHT22;55322;48.146;11.516;2023-05-10T15:23:36;12.29;93.89
68378;DHT22;55322;48.146;11.516;2023-05-10T15:26:02;12.36;93.47
68378;DHT22;55322;48.146;11.516;2023-05-10T15:28:28;12.30;93.96
68378;DHT22;55322;48.146;11.516;2023-05-10T15:30:53;12.35;93.57
68378;DHT22;55322;48.146;11.516;2023-05-10T15:33:18;12.33;93.73
68378;DHT22;55322;48.146;11.516;2023-05-10T15:35:44;12.32;93.55
68378;DHT22;55322;48.146;11.516;2023-05-10T15:38:09;12.35;93.85